sensor_id;sensor_type;location;lat;lon;timestamp;P1;durP1;ratioP1;P2;durP2;ratioP2
52878;SDS011;38747;53.140;6.498;2024-02-21T00:02:05;11.80;;;2.77;;
52878;SDS011;38747;53.140;6.498;2024-02-21T00:04:30;12.75;;;2.53;;
52878;SDS011;38747;53.140;6.498;2024-02-21T00:06:56;8.98;;;2.22;;
52878;SDS011;38747;53.140;6.498;2024-02-21T00:09:22;7.13;;;2.10;;
52878;SDS011;38747;53.140;6.498;2024-02-21T00:11:47;13.50;;;2.90;;
52878;SDS011;38747;53.140;6.498;2024-02-21T00:14:13;9.18;;;2.47;;
52878;SDS011;38747;53.140;6.498;2024-02-21T00:16:39;10.37;;;2.33;;
52878;SDS011;38747;53.140;6.498;2024-02-21T00:19:04;11.68;;;2.40;;
52878;SDS011;38747;53.140;6.498;2024-02-21T00:21:30;8.60;;;2.30;;
52878;SDS011;38747;53.140;6.498;2024-02-21T00:23:55;11.37;;;2.20;;
52878;SDS011;38747;53.140;6.498;2024-02-21T00:26:21;12.90;;;2.38;;
52878;SDS011;38747;53.140;6.498;2024-02-21T00:28:47;13.00;;;2.67;;
52878;SDS011;38747;53.140;6.498;2024-02-21T00:31:12;10.40;;;1.88;;
52878;SDS011;38747;53.140;6.498;2024-02-21T00:33:38;12.47;;;2.70;;
52878;SDS011;38747;53.140;6.498;2024-02-21T00:36:03;12.23;;;2.37;;
52878;SDS011;38747;53.140;6.498;2024-02-21T00:38:29;11.07;;;2.10;;
52878;SDS011;38747;53.140;6.498;2024-02-21T00:40:55;11.90;;;2.22;;
52878;SDS011;38747;53.140;6.498;2024-02-21T00:43:20;13.43;;;2.50;;
52878;SDS011;38747;53.140;6.498;2024-02-21T00:45:48;14.55;;;2.70;;
52878;SDS011;38747;53.140;6.498;2024-02-21T00:48:14;10.85;;;2.40;;
52878;SDS011;38747;53.140;6.498;2024-02-21T00:50:40;16.87;;;3.07;;
52878;SDS011;38747;53.140;6.498;2024-02-21T00:53:05;16.67;;;2.50;;
52878;SDS011;38747;53.140;6.498;2024-02-21T00:55:31;12.23;;;2.53;;
52878;SDS011;38747;53.140;6.498;2024-02-21T00:57:57;10.40;;;3.10;;
52878;SDS011;38747;53.140;6.498;2024-02-21T01:00:22;13.73;;;3.72;;
52878;SDS011;38747;53.140;6.498;2024-02-21T01:02:48;19.47;;;3.37;;
52878;SDS011;38747;53.140;6.498;2024-02-21T01:05:13;9.73;;;3.15;;
52878;SDS011;38747;53.140;6.498;2024-02-21T01:07:39;14.57;;;3.17;;
52878;SDS011;38747;53.140;6.498;2024-02-21T01:10:05;16.65;;;3.10;;
52878;SDS011;38747;53.140;6.498;2024-02-21T01:12:31;16.33;;;3.17;;
52878;SDS011;38747;53.140;6.498;2024-02-21T01:14:57;13.45;;;3.70;;
52878;SDS011;38747;53.140;6.498;2024-02-21T01:17:22;12.60;;;3.30;;
52878;SDS011;38747;53.140;6.498;2024-02-21T01:19:48;17.97;;;4.07;;
52878;SDS011;38747;53.140;6.498;2024-02-21T01:22:13;8.23;;;3.00;;
52878;SDS011;38747;53.140;6.498;2024-02-21T01:24:41;13.98;;;4.13;;
52878;SDS011;38747;53.140;6.498;2024-02-21T01:27:06;10.70;;;3.00;;
52878;SDS011;38747;53.140;6.498;2024-02-21T01:29:32;14.48;;;4.03;;
52878;SDS011;38747;53.140;6.498;2024-02-21T01:31:58;14.23;;;4.13;;
52878;SDS011;38747;53.140;6.498;2024-02-21T01:34:23;14.40;;;4.32;;
52878;SDS011;38747;53.140;6.498;2024-02-21T01:36:49;13.27;;;3.47;;
52878;SDS011;38747;53.140;6.498;2024-02-21T01:39:14;13.05;;;3.67;;
52878;SDS011;38747;53.140;6.498;2024-02-21T01:41:40;18.87;;;4.70;;
52878;SDS011;38747;53.140;6.498;2024-02-21T01:44:05;8.40;;;3.10;;
52878;SDS011;38747;53.140;6.498;2024-02-21T01:46:31;10.05;;;3.25;;
52878;SDS011;38747;53.140;6.498;2024-02-21T01:48:57;10.63;;;3.40;;
52878;SDS011;38747;53.140;6.498;2024-02-21T01:51:25;13.23;;;3.38;;
52878;SDS011;38747;53.140;6.498;2024-02-21T01:53:52;11.67;;;3.60;;
52878;SDS011;38747;53.140;6.498;2024-02-21T01:56:18;11.63;;;3.00;;
52878;SDS011;38747;53.140;6.498;2024-02-21T01:58:45;12.10;;;3.65;;
52878;SDS011;38747;53.140;6.498;2024-02-21T02:01:11;12.35;;;3.13;;
52878;SDS011;38747;53.140;6.498;2024-02-21T02:03:37;13.73;;;3.77;;
52878;SDS011;38747;53.140;6.498;2024-02-21T02:06:04;13.88;;;3.70;;
52878;SDS011;38747;53.140;6.498;2024-02-21T02:08:31;8.48;;;3.70;;
52878;SDS011;38747;53.140;6.498;2024-02-21T02:10:57;11.53;;;3.47;;
52878;SDS011;38747;53.140;6.498;2024-02-21T02:13:24;13.48;;;4.20;;
52878;SDS011;38747;53.140;6.498;2024-02-21T02:15:49;20.13;;;4.22;;
52878;SDS011;38747;53.140;6.498;2024-02-21T02:18:16;9.75;;;3.20;;
52878;SDS011;38747;53.140;6.498;2024-02-21T02:20:44;9.43;;;3.30;;
52878;SDS011;38747;53.140;6.498;2024-02-21T02:25:56;12.10;;;3.75;;
52878;SDS011;38747;53.140;6.498;2024-02-21T02:28:22;11.88;;;3.30;;
52878;SDS011;38747;53.140;6.498;2024-02-21T02:30:48;14.85;;;4.30;;
52878;SDS011;38747;53.140;6.498;2024-02-21T02:33:14;10.33;;;3.10;;
52878;SDS011;38747;53.140;6.498;2024-02-21T02:35:42;13.98;;;3.33;;
52878;SDS011;38747;53.140;6.498;2024-02-21T02:38:08;11.60;;;3.08;;
52878;SDS011;38747;53.140;6.498;2024-02-21T02:40:34;15.37;;;3.20;;
52878;SDS011;38747;53.140;6.498;2024-02-21T02:43:03;16.08;;;3.67;;
52878;SDS011;38747;53.140;6.498;2024-02-21T02:45:28;14.48;;;3.35;;
52878;SDS011;38747;53.140;6.498;2024-02-21T02:47:54;14.87;;;3.63;;
52878;SDS011;38747;53.140;6.498;2024-02-21T02:50:21;17.05;;;3.63;;
52878;SDS011;38747;53.140;6.498;2024-02-21T02:52:47;16.30;;;4.00;;
52878;SDS011;38747;53.140;6.498;2024-02-21T02:55:13;13.47;;;3.67;;
52878;SDS011;38747;53.140;6.498;2024-02-21T02:57:39;16.23;;;3.97;;
52878;SDS011;38747;53.140;6.498;2024-02-21T03:00:06;11.77;;;3.50;;
52878;SDS011;38747;53.140;6.498;2024-02-21T03:02:33;24.40;;;4.47;;
52878;SDS011;38747;53.140;6.498;2024-02-21T03:04:59;14.30;;;3.83;;
52878;SDS011;38747;53.140;6.498;2024-02-21T03:07:25;19.37;;;4.67;;
52878;SDS011;38747;53.140;6.498;2024-02-21T03:09:51;11.77;;;3.88;;
52878;SDS011;38747;53.140;6.498;2024-02-21T03:12:18;17.38;;;3.75;;
52878;SDS011;38747;53.140;6.498;2024-02-21T03:14:49;18.52;;;4.63;;
52878;SDS011;38747;53.140;6.498;2024-02-21T03:17:15;15.43;;;3.93;;
52878;SDS011;38747;53.140;6.498;2024-02-21T03:19:41;14.95;;;3.83;;
52878;SDS011;38747;53.140;6.498;2024-02-21T03:22:07;18.37;;;4.33;;
52878;SDS011;38747;53.140;6.498;2024-02-21T03:24:32;19.20;;;4.40;;
52878;SDS011;38747;53.140;6.498;2024-02-21T03:26:58;17.30;;;4.00;;
52878;SDS011;38747;53.140;6.498;2024-02-21T03:29:24;16.57;;;4.27;;
52878;SDS011;38747;53.140;6.498;2024-02-21T03:31:50;14.73;;;4.10;;
52878;SDS011;38747;53.140;6.498;2024-02-21T03:34:16;16.07;;;4.23;;
52878;SDS011;38747;53.140;6.498;2024-02-21T03:36:41;20.58;;;4.28;;
52878;SDS011;38747;53.140;6.498;2024-02-21T03:39:07;18.30;;;4.43;;
52878;SDS011;38747;53.140;6.498;2024-02-21T03:41:34;17.73;;;3.90;;
52878;SDS011;38747;53.140;6.498;2024-02-21T03:44:00;20.23;;;4.68;;
52878;SDS011;38747;53.140;6.498;2024-02-21T03:46:26;11.73;;;3.60;;
52878;SDS011;38747;53.140;6.498;2024-02-21T03:48:52;16.05;;;3.78;;
52878;SDS011;38747;53.140;6.498;2024-02-21T03:51:18;17.13;;;4.10;;
52878;SDS011;38747;53.140;6.498;2024-02-21T03:53:43;18.53;;;4.60;;
52878;SDS011;38747;53.140;6.498;2024-02-21T03:56:09;15.83;;;3.77;;
52878;SDS011;38747;53.140;6.498;2024-02-21T03:58:34;19.10;;;4.10;;
52878;SDS011;38747;53.140;6.498;2024-02-21T04:01:00;16.70;;;4.10;;
52878;SDS011;38747;53.140;6.498;2024-02-21T04:03:26;19.95;;;3.80;;
52878;SDS011;38747;53.140;6.498;2024-02-21T04:05:52;21.80;;;4.20;;
52878;SDS011;38747;53.140;6.498;2024-02-21T04:08:18;13.87;;;4.00;;
52878;SDS011;38747;53.140;6.498;2024-02-21T04:10:44;17.70;;;4.20;;
52878;SDS011;38747;53.140;6.498;2024-02-21T04:13:09;11.17;;;3.83;;
52878;SDS011;38747;53.140;6.498;2024-02-21T04:15:35;12.82;;;4.13;;
52878;SDS011;38747;53.140;6.498;2024-02-21T04:18:01;16.30;;;4.00;;
52878;SDS011;38747;53.140;6.498;2024-02-21T04:20:28;17.20;;;4.18;;
52878;SDS011;38747;53.140;6.498;2024-02-21T04:22:54;14.80;;;3.72;;
52878;SDS011;38747;53.140;6.498;2024-02-21T04:25:20;12.30;;;3.40;;
52878;SDS011;38747;53.140;6.498;2024-02-21T04:27:46;15.00;;;3.58;;
52878;SDS011;38747;53.140;6.498;2024-02-21T04:30:11;15.80;;;4.57;;
52878;SDS011;38747;53.140;6.498;2024-02-21T04:32:37;13.43;;;3.80;;
52878;SDS011;38747;53.140;6.498;2024-02-21T04:35:03;15.07;;;4.07;;
52878;SDS011;38747;53.140;6.498;2024-02-21T04:37:29;16.55;;;3.78;;
52878;SDS011;38747;53.140;6.498;2024-02-21T04:39:56;13.68;;;3.58;;
52878;SDS011;38747;53.140;6.498;2024-02-21T04:42:21;19.87;;;4.87;;
52878;SDS011;38747;53.140;6.498;2024-02-21T04:44:47;16.43;;;3.80;;
52878;SDS011;38747;53.140;6.498;2024-02-21T04:47:12;17.77;;;3.88;;
52878;SDS011;38747;53.140;6.498;2024-02-21T04:49:38;14.77;;;3.43;;
52878;SDS011;38747;53.140;6.498;2024-02-21T04:52:04;16.30;;;4.40;;
52878;SDS011;38747;53.140;6.498;2024-02-21T04:54:30;18.98;;;3.65;;
52878;SDS011;38747;53.140;6.498;2024-02-21T04:56:56;19.30;;;4.53;;
52878;SDS011;38747;53.140;6.498;2024-02-21T04:59:21;15.80;;;3.80;;
52878;SDS011;38747;53.140;6.498;2024-02-21T05:01:47;15.83;;;3.57;;
52878;SDS011;38747;53.140;6.498;2024-02-21T05:04:12;16.23;;;3.67;;
52878;SDS011;38747;53.140;6.498;2024-02-21T05:06:41;11.55;;;3.60;;
52878;SDS011;38747;53.140;6.498;2024-02-21T05:09:07;15.27;;;3.78;;
52878;SDS011;38747;53.140;6.498;2024-02-21T05:11:34;20.00;;;4.60;;
52878;SDS011;38747;53.140;6.498;2024-02-21T05:14:00;16.20;;;3.35;;
52878;SDS011;38747;53.140;6.498;2024-02-21T05:16:25;13.45;;;3.85;;
52878;SDS011;38747;53.140;6.498;2024-02-21T05:18:51;16.40;;;3.70;;
52878;SDS011;38747;53.140;6.498;2024-02-21T05:21:17;14.52;;;3.65;;
52878;SDS011;38747;53.140;6.498;2024-02-21T05:23:42;16.80;;;3.70;;
52878;SDS011;38747;53.140;6.498;2024-02-21T05:26:08;17.73;;;3.53;;
52878;SDS011;38747;53.140;6.498;2024-02-21T05:28:34;17.40;;;3.60;;
52878;SDS011;38747;53.140;6.498;2024-02-21T05:30:59;20.15;;;4.22;;
52878;SDS011;38747;53.140;6.498;2024-02-21T05:33:25;17.23;;;3.47;;
52878;SDS011;38747;53.140;6.498;2024-02-21T05:35:51;15.60;;;3.42;;
52878;SDS011;38747;53.140;6.498;2024-02-21T05:38:17;16.43;;;3.60;;
52878;SDS011;38747;53.140;6.498;2024-02-21T05:40:42;14.68;;;3.60;;
52878;SDS011;38747;53.140;6.498;2024-02-21T05:43:09;17.25;;;3.53;;
52878;SDS011;38747;53.140;6.498;2024-02-21T05:45:35;15.47;;;3.43;;
52878;SDS011;38747;53.140;6.498;2024-02-21T05:48:01;14.20;;;3.60;;
52878;SDS011;38747;53.140;6.498;2024-02-21T05:50:27;17.85;;;3.60;;
52878;SDS011;38747;53.140;6.498;2024-02-21T05:52:54;20.55;;;4.03;;
52878;SDS011;38747;53.140;6.498;2024-02-21T05:55:20;14.83;;;3.97;;
52878;SDS011;38747;53.140;6.498;2024-02-21T05:57:46;11.60;;;3.05;;
52878;SDS011;38747;53.140;6.498;2024-02-21T06:00:12;17.00;;;3.92;;
52878;SDS011;38747;53.140;6.498;2024-02-21T06:02:38;15.25;;;3.95;;
52878;SDS011;38747;53.140;6.498;2024-02-21T06:05:05;14.87;;;3.90;;
52878;SDS011;38747;53.140;6.498;2024-02-21T06:07:32;14.98;;;3.45;;
52878;SDS011;38747;53.140;6.498;2024-02-21T06:09:59;16.80;;;3.78;;
52878;SDS011;38747;53.140;6.498;2024-02-21T06:12:25;16.88;;;3.60;;
52878;SDS011;38747;53.140;6.498;2024-02-21T06:14:50;16.67;;;3.77;;
52878;SDS011;38747;53.140;6.498;2024-02-21T06:17:17;10.65;;;3.83;;
52878;SDS011;38747;53.140;6.498;2024-02-21T06:19:42;18.13;;;4.20;;
52878;SDS011;38747;53.140;6.498;2024-02-21T06:22:08;13.50;;;4.33;;
52878;SDS011;38747;53.140;6.498;2024-02-21T06:24:37;17.20;;;4.05;;
52878;SDS011;38747;53.140;6.498;2024-02-21T06:27:06;13.33;;;3.67;;
52878;SDS011;38747;53.140;6.498;2024-02-21T06:29:32;15.18;;;3.65;;
52878;SDS011;38747;53.140;6.498;2024-02-21T06:31:58;19.65;;;4.00;;
52878;SDS011;38747;53.140;6.498;2024-02-21T06:34:24;14.13;;;3.60;;
52878;SDS011;38747;53.140;6.498;2024-02-21T06:36:50;15.70;;;4.27;;
52878;SDS011;38747;53.140;6.498;2024-02-21T06:39:16;18.73;;;4.40;;
52878;SDS011;38747;53.140;6.498;2024-02-21T06:41:42;17.85;;;4.60;;
52878;SDS011;38747;53.140;6.498;2024-02-21T06:44:08;22.03;;;4.90;;
52878;SDS011;38747;53.140;6.498;2024-02-21T06:46:34;19.67;;;5.53;;
52878;SDS011;38747;53.140;6.498;2024-02-21T06:48:59;19.53;;;5.00;;
52878;SDS011;38747;53.140;6.498;2024-02-21T06:51:26;18.67;;;5.68;;
52878;SDS011;38747;53.140;6.498;2024-02-21T06:53:52;18.50;;;5.15;;
52878;SDS011;38747;53.140;6.498;2024-02-21T06:56:18;17.33;;;4.78;;
52878;SDS011;38747;53.140;6.498;2024-02-21T06:58:44;34.03;;;6.97;;
52878;SDS011;38747;53.140;6.498;2024-02-21T07:01:10;26.48;;;6.15;;
52878;SDS011;38747;53.140;6.498;2024-02-21T07:03:35;27.83;;;6.73;;
52878;SDS011;38747;53.140;6.498;2024-02-21T07:06:01;28.37;;;7.37;;
52878;SDS011;38747;53.140;6.498;2024-02-21T07:08:27;29.45;;;7.70;;
52878;SDS011;38747;53.140;6.498;2024-02-21T07:10:53;32.83;;;8.37;;
52878;SDS011;38747;53.140;6.498;2024-02-21T07:13:18;31.98;;;8.30;;
52878;SDS011;38747;53.140;6.498;2024-02-21T07:15:44;28.47;;;8.10;;
52878;SDS011;38747;53.140;6.498;2024-02-21T07:18:10;24.60;;;7.35;;
52878;SDS011;38747;53.140;6.498;2024-02-21T07:20:35;26.00;;;7.07;;
52878;SDS011;38747;53.140;6.498;2024-02-21T07:23:03;24.92;;;6.28;;
52878;SDS011;38747;53.140;6.498;2024-02-21T07:25:29;31.30;;;7.10;;
52878;SDS011;38747;53.140;6.498;2024-02-21T07:27:55;23.77;;;6.57;;
52878;SDS011;38747;53.140;6.498;2024-02-21T07:30:21;30.60;;;5.77;;
52878;SDS011;38747;53.140;6.498;2024-02-21T07:32:49;29.05;;;5.50;;
52878;SDS011;38747;53.140;6.498;2024-02-21T07:35:15;28.70;;;5.28;;
52878;SDS011;38747;53.140;6.498;2024-02-21T07:37:41;22.67;;;4.83;;
52878;SDS011;38747;53.140;6.498;2024-02-21T07:40:11;26.67;;;4.28;;
52878;SDS011;38747;53.140;6.498;2024-02-21T07:42:38;16.33;;;3.50;;
52878;SDS011;38747;53.140;6.498;2024-02-21T07:45:04;22.75;;;4.07;;
52878;SDS011;38747;53.140;6.498;2024-02-21T07:47:29;17.93;;;3.60;;
52878;SDS011;38747;53.140;6.498;2024-02-21T07:49:55;12.60;;;3.40;;
52878;SDS011;38747;53.140;6.498;2024-02-21T07:52:21;22.50;;;4.13;;
52878;SDS011;38747;53.140;6.498;2024-02-21T07:54:46;13.57;;;3.88;;
52878;SDS011;38747;53.140;6.498;2024-02-21T07:57:12;15.67;;;3.77;;
52878;SDS011;38747;53.140;6.498;2024-02-21T07:59:37;16.38;;;3.65;;
52878;SDS011;38747;53.140;6.498;2024-02-21T08:02:03;14.83;;;3.40;;
52878;SDS011;38747;53.140;6.498;2024-02-21T08:04:31;11.57;;;3.70;;
52878;SDS011;38747;53.140;6.498;2024-02-21T08:06:57;10.00;;;2.97;;
52878;SDS011;38747;53.140;6.498;2024-02-21T08:09:26;14.70;;;3.30;;
52878;SDS011;38747;53.140;6.498;2024-02-21T08:11:53;17.88;;;3.63;;
52878;SDS011;38747;53.140;6.498;2024-02-21T08:14:19;14.43;;;3.28;;
52878;SDS011;38747;53.140;6.498;2024-02-21T08:16:45;15.13;;;3.40;;
52878;SDS011;38747;53.140;6.498;2024-02-21T08:19:11;11.20;;;3.43;;
52878;SDS011;38747;53.140;6.498;2024-02-21T08:21:36;14.33;;;3.47;;
52878;SDS011;38747;53.140;6.498;2024-02-21T08:24:02;15.93;;;3.70;;
52878;SDS011;38747;53.140;6.498;2024-02-21T08:26:28;12.20;;;3.25;;
52878;SDS011;38747;53.140;6.498;2024-02-21T08:28:56;13.70;;;3.50;;
52878;SDS011;38747;53.140;6.498;2024-02-21T08:31:24;13.45;;;3.78;;
52878;SDS011;38747;53.140;6.498;2024-02-21T08:33:56;8.90;;;3.35;;
52878;SDS011;38747;53.140;6.498;2024-02-21T08:36:27;16.38;;;3.75;;
52878;SDS011;38747;53.140;6.498;2024-02-21T08:38:54;17.88;;;4.20;;
52878;SDS011;38747;53.140;6.498;2024-02-21T08:41:19;16.17;;;4.40;;
52878;SDS011;38747;53.140;6.498;2024-02-21T08:43:48;16.15;;;4.15;;
52878;SDS011;38747;53.140;6.498;2024-02-21T08:46:13;18.07;;;4.73;;
52878;SDS011;38747;53.140;6.498;2024-02-21T08:48:39;16.85;;;4.60;;
52878;SDS011;38747;53.140;6.498;2024-02-21T08:51:04;16.40;;;4.97;;
52878;SDS011;38747;53.140;6.498;2024-02-21T08:53:30;19.67;;;4.90;;
52878;SDS011;38747;53.140;6.498;2024-02-21T08:55:56;15.33;;;5.50;;
52878;SDS011;38747;53.140;6.498;2024-02-21T08:58:22;21.27;;;6.05;;
52878;SDS011;38747;53.140;6.498;2024-02-21T09:00:49;13.52;;;6.13;;
52878;SDS011;38747;53.140;6.498;2024-02-21T09:03:16;19.42;;;6.47;;
52878;SDS011;38747;53.140;6.498;2024-02-21T09:05:42;16.50;;;7.10;;
52878;SDS011;38747;53.140;6.498;2024-02-21T09:08:08;20.08;;;7.32;;
52878;SDS011;38747;53.140;6.498;2024-02-21T09:10:34;21.30;;;7.17;;
52878;SDS011;38747;53.140;6.498;2024-02-21T09:12:59;16.13;;;7.20;;
52878;SDS011;38747;53.140;6.498;2024-02-21T09:15:25;21.07;;;7.30;;
52878;SDS011;38747;53.140;6.498;2024-02-21T09:17:51;18.42;;;7.50;;
52878;SDS011;38747;53.140;6.498;2024-02-21T09:20:17;16.47;;;7.03;;
52878;SDS011;38747;53.140;6.498;2024-02-21T09:22:43;21.92;;;7.75;;
52878;SDS011;38747;53.140;6.498;2024-02-21T09:25:08;19.03;;;7.50;;
52878;SDS011;38747;53.140;6.498;2024-02-21T09:27:36;20.58;;;7.38;;
52878;SDS011;38747;53.140;6.498;2024-02-21T09:30:03;17.92;;;6.80;;
52878;SDS011;38747;53.140;6.498;2024-02-21T09:32:30;16.35;;;7.70;;
52878;SDS011;38747;53.140;6.498;2024-02-21T09:34:57;20.65;;;7.68;;
52878;SDS011;38747;53.140;6.498;2024-02-21T09:37:23;19.80;;;6.50;;
52878;SDS011;38747;53.140;6.498;2024-02-21T09:39:49;16.77;;;7.13;;
52878;SDS011;38747;53.140;6.498;2024-02-21T09:42:16;16.60;;;7.55;;
52878;SDS011;38747;53.140;6.498;2024-02-21T09:44:45;20.02;;;7.65;;
52878;SDS011;38747;53.140;6.498;2024-02-21T09:48:00;15.60;;;6.97;;
52878;SDS011;38747;53.140;6.498;2024-02-21T09:50:08;22.92;;;8.52;;
52878;SDS011;38747;53.140;6.498;2024-02-21T09:52:34;19.90;;;7.45;;
52878;SDS011;38747;53.140;6.498;2024-02-21T09:55:01;20.30;;;7.90;;
52878;SDS011;38747;53.140;6.498;2024-02-21T09:57:30;17.15;;;7.70;;
52878;SDS011;38747;53.140;6.498;2024-02-21T09:59:56;20.42;;;8.13;;
52878;SDS011;38747;53.140;6.498;2024-02-21T10:02:24;18.15;;;8.38;;
52878;SDS011;38747;53.140;6.498;2024-02-21T10:04:49;15.87;;;8.10;;
52878;SDS011;38747;53.140;6.498;2024-02-21T10:07:15;20.67;;;7.78;;
52878;SDS011;38747;53.140;6.498;2024-02-21T10:09:41;18.37;;;8.60;;
52878;SDS011;38747;53.140;6.498;2024-02-21T10:12:10;18.58;;;8.02;;
52878;SDS011;38747;53.140;6.498;2024-02-21T10:14:37;19.45;;;8.43;;
52878;SDS011;38747;53.140;6.498;2024-02-21T10:17:03;16.92;;;8.30;;
52878;SDS011;38747;53.140;6.498;2024-02-21T10:19:34;18.43;;;8.50;;
52878;SDS011;38747;53.140;6.498;2024-02-21T10:22:03;19.85;;;9.30;;
52878;SDS011;38747;53.140;6.498;2024-02-21T10:24:35;21.70;;;9.05;;
52878;SDS011;38747;53.140;6.498;2024-02-21T10:27:07;21.25;;;9.55;;
52878;SDS011;38747;53.140;6.498;2024-02-21T10:29:35;22.30;;;9.95;;
52878;SDS011;38747;53.140;6.498;2024-02-21T10:34:37;20.23;;;9.43;;
52878;SDS011;38747;53.140;6.498;2024-02-21T10:37:05;18.88;;;9.35;;
52878;SDS011;38747;53.140;6.498;2024-02-21T10:39:32;20.10;;;9.35;;
52878;SDS011;38747;53.140;6.498;2024-02-21T10:41:59;19.00;;;9.93;;
52878;SDS011;38747;53.140;6.498;2024-02-21T10:44:29;19.33;;;9.33;;
52878;SDS011;38747;53.140;6.498;2024-02-21T10:47:01;22.55;;;10.15;;
52878;SDS011;38747;53.140;6.498;2024-02-21T10:49:38;21.17;;;9.43;;
52878;SDS011;38747;53.140;6.498;2024-02-21T10:52:15;20.23;;;10.07;;
52878;SDS011;38747;53.140;6.498;2024-02-21T10:54:56;25.80;;;10.50;;
52878;SDS011;38747;53.140;6.498;2024-02-21T10:57:28;21.17;;;9.70;;
52878;SDS011;38747;53.140;6.498;2024-02-21T10:59:56;22.35;;;9.98;;
52878;SDS011;38747;53.140;6.498;2024-02-21T11:02:24;20.25;;;10.00;;
52878;SDS011;38747;53.140;6.498;2024-02-21T11:04:51;21.50;;;9.23;;
52878;SDS011;38747;53.140;6.498;2024-02-21T11:07:19;19.60;;;9.65;;
52878;SDS011;38747;53.140;6.498;2024-02-21T11:09:51;20.47;;;9.03;;
52878;SDS011;38747;53.140;6.498;2024-02-21T11:12:22;20.92;;;9.07;;
52878;SDS011;38747;53.140;6.498;2024-02-21T11:14:49;15.55;;;8.15;;
52878;SDS011;38747;53.140;6.498;2024-02-21T11:17:15;18.90;;;8.53;;
52878;SDS011;38747;53.140;6.498;2024-02-21T11:19:42;18.33;;;9.05;;
52878;SDS011;38747;53.140;6.498;2024-02-21T11:22:14;19.00;;;8.38;;
52878;SDS011;38747;53.140;6.498;2024-02-21T11:24:44;17.27;;;8.77;;
52878;SDS011;38747;53.140;6.498;2024-02-21T11:27:18;15.60;;;7.50;;
52878;SDS011;38747;53.140;6.498;2024-02-21T11:29:46;14.50;;;7.25;;
52878;SDS011;38747;53.140;6.498;2024-02-21T11:32:16;17.55;;;7.60;;
52878;SDS011;38747;53.140;6.498;2024-02-21T11:34:56;17.23;;;7.40;;
52878;SDS011;38747;53.140;6.498;2024-02-21T11:37:27;17.37;;;7.57;;
52878;SDS011;38747;53.140;6.498;2024-02-21T11:39:56;14.73;;;7.15;;
52878;SDS011;38747;53.140;6.498;2024-02-21T11:42:22;15.43;;;7.50;;
52878;SDS011;38747;53.140;6.498;2024-02-21T11:44:50;14.93;;;7.63;;
52878;SDS011;38747;53.140;6.498;2024-02-21T11:47:16;12.90;;;6.30;;
52878;SDS011;38747;53.140;6.498;2024-02-21T11:49:46;11.57;;;6.80;;
52878;SDS011;38747;53.140;6.498;2024-02-21T11:52:14;16.52;;;7.10;;
52878;SDS011;38747;53.140;6.498;2024-02-21T11:54:44;17.63;;;7.40;;
52878;SDS011;38747;53.140;6.498;2024-02-21T11:57:10;15.67;;;7.13;;
52878;SDS011;38747;53.140;6.498;2024-02-21T11:59:39;13.25;;;6.32;;
52878;SDS011;38747;53.140;6.498;2024-02-21T12:02:05;16.40;;;7.07;;
52878;SDS011;38747;53.140;6.498;2024-02-21T12:04:32;14.05;;;6.40;;
52878;SDS011;38747;53.140;6.498;2024-02-21T12:06:58;14.07;;;6.23;;
52878;SDS011;38747;53.140;6.498;2024-02-21T12:09:24;13.68;;;6.22;;
52878;SDS011;38747;53.140;6.498;2024-02-21T12:11:57;15.40;;;6.03;;
52878;SDS011;38747;53.140;6.498;2024-02-21T12:14:24;16.88;;;6.63;;
52878;SDS011;38747;53.140;6.498;2024-02-21T12:16:50;11.73;;;5.43;;
52878;SDS011;38747;53.140;6.498;2024-02-21T12:19:15;13.95;;;6.20;;
52878;SDS011;38747;53.140;6.498;2024-02-21T12:21:42;15.32;;;6.25;;
52878;SDS011;38747;53.140;6.498;2024-02-21T12:24:21;11.83;;;5.80;;
52878;SDS011;38747;53.140;6.498;2024-02-21T12:26:52;14.13;;;5.60;;
52878;SDS011;38747;53.140;6.498;2024-02-21T12:29:21;16.23;;;6.15;;
52878;SDS011;38747;53.140;6.498;2024-02-21T12:31:49;13.77;;;6.22;;
52878;SDS011;38747;53.140;6.498;2024-02-21T12:34:15;13.20;;;5.95;;
52878;SDS011;38747;53.140;6.498;2024-02-21T12:36:45;13.63;;;5.57;;
52878;SDS011;38747;53.140;6.498;2024-02-21T12:39:14;12.48;;;6.00;;
52878;SDS011;38747;53.140;6.498;2024-02-21T12:41:40;11.77;;;5.00;;
52878;SDS011;38747;53.140;6.498;2024-02-21T12:44:09;11.18;;;4.95;;
52878;SDS011;38747;53.140;6.498;2024-02-21T12:46:36;13.73;;;5.30;;
52878;SDS011;38747;53.140;6.498;2024-02-21T12:49:02;12.23;;;5.27;;
52878;SDS011;38747;53.140;6.498;2024-02-21T12:51:32;10.85;;;4.70;;
52878;SDS011;38747;53.140;6.498;2024-02-21T12:53:57;11.23;;;5.05;;
52878;SDS011;38747;53.140;6.498;2024-02-21T12:56:23;11.23;;;4.97;;
52878;SDS011;38747;53.140;6.498;2024-02-21T12:58:51;11.15;;;5.13;;
52878;SDS011;38747;53.140;6.498;2024-02-21T13:01:16;9.50;;;4.50;;
52878;SDS011;38747;53.140;6.498;2024-02-21T13:03:42;10.10;;;4.40;;
52878;SDS011;38747;53.140;6.498;2024-02-21T13:06:08;10.50;;;4.70;;
52878;SDS011;38747;53.140;6.498;2024-02-21T13:08:35;9.60;;;4.20;;
52878;SDS011;38747;53.140;6.498;2024-02-21T13:11:01;9.77;;;4.68;;
52878;SDS011;38747;53.140;6.498;2024-02-21T13:13:27;9.93;;;4.57;;
52878;SDS011;38747;53.140;6.498;2024-02-21T13:15:53;9.80;;;5.00;;
52878;SDS011;38747;53.140;6.498;2024-02-21T13:18:19;11.70;;;4.57;;
52878;SDS011;38747;53.140;6.498;2024-02-21T13:20:44;11.18;;;4.45;;
52878;SDS011;38747;53.140;6.498;2024-02-21T13:23:10;11.73;;;4.47;;
52878;SDS011;38747;53.140;6.498;2024-02-21T13:25:35;10.43;;;4.20;;
52878;SDS011;38747;53.140;6.498;2024-02-21T13:28:01;10.95;;;4.13;;
52878;SDS011;38747;53.140;6.498;2024-02-21T13:30:28;9.02;;;4.10;;
52878;SDS011;38747;53.140;6.498;2024-02-21T13:32:54;9.17;;;4.17;;
52878;SDS011;38747;53.140;6.498;2024-02-21T13:35:19;11.63;;;4.72;;
52878;SDS011;38747;53.140;6.498;2024-02-21T13:37:45;9.00;;;3.63;;
52878;SDS011;38747;53.140;6.498;2024-02-21T13:40:11;8.53;;;4.03;;
52878;SDS011;38747;53.140;6.498;2024-02-21T13:42:40;9.75;;;3.80;;
52878;SDS011;38747;53.140;6.498;2024-02-21T13:45:05;8.80;;;3.95;;
52878;SDS011;38747;53.140;6.498;2024-02-21T13:47:32;9.13;;;3.60;;
52878;SDS011;38747;53.140;6.498;2024-02-21T13:49:58;10.30;;;3.75;;
52878;SDS011;38747;53.140;6.498;2024-02-21T13:52:26;9.77;;;3.60;;
52878;SDS011;38747;53.140;6.498;2024-02-21T13:54:52;8.57;;;3.63;;
52878;SDS011;38747;53.140;6.498;2024-02-21T13:57:17;8.65;;;3.78;;
52878;SDS011;38747;53.140;6.498;2024-02-21T13:59:43;8.10;;;4.00;;
52878;SDS011;38747;53.140;6.498;2024-02-21T14:02:09;9.03;;;3.33;;
52878;SDS011;38747;53.140;6.498;2024-02-21T14:04:35;8.23;;;3.83;;
52878;SDS011;38747;53.140;6.498;2024-02-21T14:07:00;7.10;;;3.50;;
52878;SDS011;38747;53.140;6.498;2024-02-21T14:09:26;8.32;;;3.78;;
52878;SDS011;38747;53.140;6.498;2024-02-21T14:11:55;7.90;;;3.50;;
52878;SDS011;38747;53.140;6.498;2024-02-21T14:14:20;7.17;;;3.50;;
52878;SDS011;38747;53.140;6.498;2024-02-21T14:16:46;7.20;;;3.42;;
52878;SDS011;38747;53.140;6.498;2024-02-21T14:19:13;7.53;;;3.55;;
52878;SDS011;38747;53.140;6.498;2024-02-21T14:21:40;8.30;;;3.58;;
52878;SDS011;38747;53.140;6.498;2024-02-21T14:24:06;8.60;;;3.43;;
52878;SDS011;38747;53.140;6.498;2024-02-21T14:26:31;7.60;;;3.97;;
52878;SDS011;38747;53.140;6.498;2024-02-21T14:28:58;8.73;;;3.67;;
52878;SDS011;38747;53.140;6.498;2024-02-21T14:31:23;10.33;;;3.87;;
52878;SDS011;38747;53.140;6.498;2024-02-21T14:33:50;7.97;;;3.85;;
52878;SDS011;38747;53.140;6.498;2024-02-21T14:36:16;8.05;;;3.95;;
52878;SDS011;38747;53.140;6.498;2024-02-21T14:38:42;9.53;;;3.90;;